sensor_id;sensor_type;location;lat;lon;timestamp;P1;durP1;ratioP1;P2;durP2;ratioP2
71856;SDS011;63344;46.980;28.882;2023-02-18T00:01:33;55.92;;;22.17;;
71856;SDS011;63344;46.980;28.882;2023-02-18T00:04:00;64.55;;;24.73;;
71856;SDS011;63344;46.980;28.882;2023-02-18T00:06:30;57.95;;;24.13;;
71856;SDS011;63344;46.980;28.882;2023-02-18T00:08:59;65.00;;;25.88;;
71856;SDS011;63344;46.980;28.882;2023-02-18T00:11:30;61.67;;;24.65;;
71856;SDS011;63344;46.980;28.882;2023-02-18T00:13:58;44.20;;;18.33;;
71856;SDS011;63344;46.980;28.882;2023-02-18T00:16:27;43.00;;;17.83;;
71856;SDS011;63344;46.980;28.882;2023-02-18T00:18:59;41.33;;;17.88;;
71856;SDS011;63344;46.980;28.882;2023-02-18T00:21:28;47.08;;;18.90;;
71856;SDS011;63344;46.980;28.882;2023-02-18T00:23:56;45.67;;;19.20;;
71856;SDS011;63344;46.980;28.882;2023-02-18T00:26:24;60.78;;;26.02;;
71856;SDS011;63344;46.980;28.882;2023-02-18T00:28:52;49.75;;;21.70;;
71856;SDS011;63344;46.980;28.882;2023-02-18T00:31:22;57.47;;;23.40;;
71856;SDS011;63344;46.980;28.882;2023-02-18T00:33:51;55.00;;;21.13;;
71856;SDS011;63344;46.980;28.882;2023-02-18T00:36:19;63.55;;;24.90;;
71856;SDS011;63344;46.980;28.882;2023-02-18T00:38:52;36.65;;;17.45;;
71856;SDS011;63344;46.980;28.882;2023-02-18T00:41:26;49.90;;;20.23;;
71856;SDS011;63344;46.980;28.882;2023-02-18T00:43:55;58.45;;;24.25;;
71856;SDS011;63344;46.980;28.882;2023-02-18T00:46:22;46.58;;;20.15;;
71856;SDS011;63344;46.980;28.882;2023-02-18T00:48:51;52.28;;;19.38;;
71856;SDS011;63344;46.980;28.882;2023-02-18T00:51:23;42.08;;;17.42;;
71856;SDS011;63344;46.980;28.882;2023-02-18T00:53:51;52.03;;;20.73;;
71856;SDS011;63344;46.980;28.882;2023-02-18T00:56:24;51.75;;;21.13;;
71856;SDS011;63344;46.980;28.882;2023-02-18T00:58:51;49.85;;;20.70;;
71856;SDS011;63344;46.980;28.882;2023-02-18T01:01:18;51.97;;;19.45;;
71856;SDS011;63344;46.980;28.882;2023-02-18T01:03:46;40.53;;;17.75;;
71856;SDS011;63344;46.980;28.882;2023-02-18T01:06:13;44.58;;;19.08;;
71856;SDS011;63344;46.980;28.882;2023-02-18T01:08:40;50.75;;;21.45;;
71856;SDS011;63344;46.980;28.882;2023-02-18T01:11:09;44.58;;;17.83;;
71856;SDS011;63344;46.980;28.882;2023-02-18T01:13:37;53.05;;;22.20;;
71856;SDS011;63344;46.980;28.882;2023-02-18T01:16:06;49.25;;;20.70;;
71856;SDS011;63344;46.980;28.882;2023-02-18T01:18:35;40.72;;;17.67;;
71856;SDS011;63344;46.980;28.882;2023-02-18T01:21:03;37.92;;;16.30;;
71856;SDS011;63344;46.980;28.882;2023-02-18T01:23:35;38.53;;;14.32;;
71856;SDS011;63344;46.980;28.882;2023-02-18T01:26:04;40.80;;;19.17;;
71856;SDS011;63344;46.980;28.882;2023-02-18T01:28:33;38.67;;;15.65;;
71856;SDS011;63344;46.980;28.882;2023-02-18T01:31:05;31.92;;;14.38;;
71856;SDS011;63344;46.980;28.882;2023-02-18T01:33:35;38.65;;;17.60;;
71856;SDS011;63344;46.980;28.882;2023-02-18T01:36:02;34.88;;;15.05;;
71856;SDS011;63344;46.980;28.882;2023-02-18T01:38:30;40.72;;;17.35;;
71856;SDS011;63344;46.980;28.882;2023-02-18T01:40:57;34.75;;;14.52;;
71856;SDS011;63344;46.980;28.882;2023-02-18T01:43:25;30.45;;;13.00;;
71856;SDS011;63344;46.980;28.882;2023-02-18T01:48:28;41.72;;;18.15;;
71856;SDS011;63344;46.980;28.882;2023-02-18T01:53:36;39.47;;;17.98;;
71856;SDS011;63344;46.980;28.882;2023-02-18T01:56:10;36.00;;;17.30;;
71856;SDS011;63344;46.980;28.882;2023-02-18T01:58:40;39.03;;;17.33;;
71856;SDS011;63344;46.980;28.882;2023-02-18T02:01:08;39.90;;;16.17;;
71856;SDS011;63344;46.980;28.882;2023-02-18T02:03:36;27.05;;;12.68;;
71856;SDS011;63344;46.980;28.882;2023-02-18T02:06:15;32.63;;;14.65;;
71856;SDS011;63344;46.980;28.882;2023-02-18T02:08:44;32.45;;;14.95;;
71856;SDS011;63344;46.980;28.882;2023-02-18T02:19:51;34.63;;;14.95;;
71856;SDS011;63344;46.980;28.882;2023-02-18T02:25:34;36.83;;;14.40;;
71856;SDS011;63344;46.980;28.882;2023-02-18T02:44:54;31.35;;;15.07;;
71856;SDS011;63344;46.980;28.882;2023-02-18T02:47:37;30.50;;;13.30;;
71856;SDS011;63344;46.980;28.882;2023-02-18T02:52:49;37.55;;;16.02;;
71856;SDS011;63344;46.980;28.882;2023-02-18T02:55:21;42.58;;;17.15;;
71856;SDS011;63344;46.980;28.882;2023-02-18T02:57:49;36.08;;;15.82;;
71856;SDS011;63344;46.980;28.882;2023-02-18T03:00:20;30.38;;;14.30;;
71856;SDS011;63344;46.980;28.882;2023-02-18T03:03:04;34.90;;;15.45;;
71856;SDS011;63344;46.980;28.882;2023-02-18T03:08:29;36.13;;;15.80;;
71856;SDS011;63344;46.980;28.882;2023-02-18T03:11:10;38.42;;;14.77;;
71856;SDS011;63344;46.980;28.882;2023-02-18T03:23:36;35.03;;;16.25;;
71856;SDS011;63344;46.980;28.882;2023-02-18T03:26:08;42.15;;;16.27;;
71856;SDS011;63344;46.980;28.882;2023-02-18T03:28:36;35.22;;;18.27;;
71856;SDS011;63344;46.980;28.882;2023-02-18T03:31:06;34.70;;;15.00;;
71856;SDS011;63344;46.980;28.882;2023-02-18T03:33:38;36.95;;;17.50;;
71856;SDS011;63344;46.980;28.882;2023-02-18T03:36:10;37.63;;;17.95;;
71856;SDS011;63344;46.980;28.882;2023-02-18T03:38:43;34.88;;;16.98;;
71856;SDS011;63344;46.980;28.882;2023-02-18T03:41:16;26.98;;;14.05;;
71856;SDS011;63344;46.980;28.882;2023-02-18T03:43:51;29.60;;;13.98;;
71856;SDS011;63344;46.980;28.882;2023-02-18T03:46:21;38.35;;;17.90;;
71856;SDS011;63344;46.980;28.882;2023-02-18T03:48:48;39.45;;;18.63;;
71856;SDS011;63344;46.980;28.882;2023-02-18T03:51:16;29.20;;;14.98;;
71856;SDS011;63344;46.980;28.882;2023-02-18T03:53:43;25.50;;;13.25;;
71856;SDS011;63344;46.980;28.882;2023-02-18T03:56:10;36.33;;;17.23;;
71856;SDS011;63344;46.980;28.882;2023-02-18T03:58:38;40.50;;;18.45;;
71856;SDS011;63344;46.980;28.882;2023-02-18T04:01:05;37.72;;;16.05;;
71856;SDS011;63344;46.980;28.882;2023-02-18T04:03:32;37.65;;;16.50;;
71856;SDS011;63344;46.980;28.882;2023-02-18T04:06:00;42.92;;;18.65;;
71856;SDS011;63344;46.980;28.882;2023-02-18T04:08:27;42.72;;;17.75;;
71856;SDS011;63344;46.980;28.882;2023-02-18T04:10:54;41.22;;;18.30;;
71856;SDS011;63344;46.980;28.882;2023-02-18T04:13:22;36.95;;;17.30;;
71856;SDS011;63344;46.980;28.882;2023-02-18T04:15:50;39.97;;;18.98;;
71856;SDS011;63344;46.980;28.882;2023-02-18T04:18:17;29.67;;;14.30;;
71856;SDS011;63344;46.980;28.882;2023-02-18T04:20:45;37.78;;;17.92;;
71856;SDS011;63344;46.980;28.882;2023-02-18T04:23:12;37.78;;;16.85;;
71856;SDS011;63344;46.980;28.882;2023-02-18T04:25:40;42.20;;;20.83;;
71856;SDS011;63344;46.980;28.882;2023-02-18T04:28:07;35.65;;;16.20;;
71856;SDS011;63344;46.980;28.882;2023-02-18T04:30:40;40.15;;;16.85;;
71856;SDS011;63344;46.980;28.882;2023-02-18T04:33:08;40.50;;;19.13;;
71856;SDS011;63344;46.980;28.882;2023-02-18T04:35:36;37.15;;;15.05;;
71856;SDS011;63344;46.980;28.882;2023-02-18T04:38:08;44.40;;;21.30;;
71856;SDS011;63344;46.980;28.882;2023-02-18T04:40:39;35.90;;;17.33;;
71856;SDS011;63344;46.980;28.882;2023-02-18T04:43:06;42.50;;;19.63;;
71856;SDS011;63344;46.980;28.882;2023-02-18T04:45:33;42.78;;;18.02;;
71856;SDS011;63344;46.980;28.882;2023-02-18T04:48:01;40.20;;;17.60;;
71856;SDS011;63344;46.980;28.882;2023-02-18T04:50:29;37.38;;;16.13;;
71856;SDS011;63344;46.980;28.882;2023-02-18T04:52:57;33.88;;;15.05;;
71856;SDS011;63344;46.980;28.882;2023-02-18T04:55:25;37.58;;;16.92;;
71856;SDS011;63344;46.980;28.882;2023-02-18T04:57:52;45.22;;;20.13;;
71856;SDS011;63344;46.980;28.882;2023-02-18T05:00:19;33.45;;;15.73;;
71856;SDS011;63344;46.980;28.882;2023-02-18T05:02:47;40.40;;;18.25;;
71856;SDS011;63344;46.980;28.882;2023-02-18T05:05:15;45.63;;;20.17;;
71856;SDS011;63344;46.980;28.882;2023-02-18T05:07:43;35.97;;;17.33;;
71856;SDS011;63344;46.980;28.882;2023-02-18T05:10:13;33.05;;;16.33;;
71856;SDS011;63344;46.980;28.882;2023-02-18T05:12:44;38.05;;;18.08;;
71856;SDS011;63344;46.980;28.882;2023-02-18T05:15:14;35.78;;;15.38;;
71856;SDS011;63344;46.980;28.882;2023-02-18T05:17:51;42.45;;;18.58;;
71856;SDS011;63344;46.980;28.882;2023-02-18T05:20:19;37.85;;;19.27;;
71856;SDS011;63344;46.980;28.882;2023-02-18T05:22:54;27.10;;;13.73;;
71856;SDS011;63344;46.980;28.882;2023-02-18T05:25:24;34.92;;;15.77;;
71856;SDS011;63344;46.980;28.882;2023-02-18T05:27:52;36.45;;;17.00;;
71856;SDS011;63344;46.980;28.882;2023-02-18T05:30:20;26.52;;;13.25;;
71856;SDS011;63344;46.980;28.882;2023-02-18T05:32:47;30.15;;;15.38;;
71856;SDS011;63344;46.980;28.882;2023-02-18T05:35:25;29.13;;;12.98;;
71856;SDS011;63344;46.980;28.882;2023-02-18T05:37:53;32.28;;;15.05;;
71856;SDS011;63344;46.980;28.882;2023-02-18T05:40:20;25.70;;;12.55;;
71856;SDS011;63344;46.980;28.882;2023-02-18T05:42:47;26.40;;;12.80;;
71856;SDS011;63344;46.980;28.882;2023-02-18T05:45:15;29.95;;;15.18;;
71856;SDS011;63344;46.980;28.882;2023-02-18T05:47:42;33.00;;;15.75;;
71856;SDS011;63344;46.980;28.882;2023-02-18T05:50:09;26.25;;;13.75;;
71856;SDS011;63344;46.980;28.882;2023-02-18T05:52:37;29.48;;;14.43;;
71856;SDS011;63344;46.980;28.882;2023-02-18T05:55:05;28.63;;;14.80;;
71856;SDS011;63344;46.980;28.882;2023-02-18T05:57:32;26.67;;;13.77;;
71856;SDS011;63344;46.980;28.882;2023-02-18T06:00:04;23.15;;;11.85;;
71856;SDS011;63344;46.980;28.882;2023-02-18T06:02:33;22.98;;;11.05;;
71856;SDS011;63344;46.980;28.882;2023-02-18T06:05:04;26.95;;;14.63;;
71856;SDS011;63344;46.980;28.882;2023-02-18T06:07:33;23.98;;;14.40;;
71856;SDS011;63344;46.980;28.882;2023-02-18T06:10:01;25.52;;;12.35;;
71856;SDS011;63344;46.980;28.882;2023-02-18T06:12:38;24.50;;;12.15;;
71856;SDS011;63344;46.980;28.882;2023-02-18T06:15:05;23.17;;;11.73;;
71856;SDS011;63344;46.980;28.882;2023-02-18T06:17:33;27.02;;;13.23;;
71856;SDS011;63344;46.980;28.882;2023-02-18T06:20:02;21.75;;;10.48;;
71856;SDS011;63344;46.980;28.882;2023-02-18T06:22:29;22.30;;;11.32;;
71856;SDS011;63344;46.980;28.882;2023-02-18T06:24:56;21.90;;;11.85;;
71856;SDS011;63344;46.980;28.882;2023-02-18T06:27:23;22.58;;;11.20;;
71856;SDS011;63344;46.980;28.882;2023-02-18T06:29:55;25.83;;;13.05;;
71856;SDS011;63344;46.980;28.882;2023-02-18T06:32:22;22.83;;;11.68;;
71856;SDS011;63344;46.980;28.882;2023-02-18T06:34:52;21.67;;;11.48;;
71856;SDS011;63344;46.980;28.882;2023-02-18T06:37:22;23.33;;;10.90;;
71856;SDS011;63344;46.980;28.882;2023-02-18T06:39:56;24.33;;;12.13;;
71856;SDS011;63344;46.980;28.882;2023-02-18T06:44:54;19.20;;;10.10;;
71856;SDS011;63344;46.980;28.882;2023-02-18T06:47:27;22.90;;;11.90;;
71856;SDS011;63344;46.980;28.882;2023-02-18T06:49:59;19.00;;;10.38;;
71856;SDS011;63344;46.980;28.882;2023-02-18T06:52:29;22.20;;;11.32;;
71856;SDS011;63344;46.980;28.882;2023-02-18T06:55:03;22.92;;;11.95;;
71856;SDS011;63344;46.980;28.882;2023-02-18T06:57:40;18.63;;;10.43;;
71856;SDS011;63344;46.980;28.882;2023-02-18T07:00:09;20.98;;;11.40;;
71856;SDS011;63344;46.980;28.882;2023-02-18T07:02:36;19.95;;;11.98;;
71856;SDS011;63344;46.980;28.882;2023-02-18T07:05:04;18.52;;;10.27;;
71856;SDS011;63344;46.980;28.882;2023-02-18T07:07:53;18.63;;;10.23;;
71856;SDS011;63344;46.980;28.882;2023-02-18T07:10:38;18.80;;;10.15;;
71856;SDS011;63344;46.980;28.882;2023-02-18T07:13:05;21.73;;;9.73;;
71856;SDS011;63344;46.980;28.882;2023-02-18T07:15:33;17.88;;;8.93;;
71856;SDS011;63344;46.980;28.882;2023-02-18T07:18:04;20.92;;;11.65;;
71856;SDS011;63344;46.980;28.882;2023-02-18T07:20:31;18.52;;;10.25;;
71856;SDS011;63344;46.980;28.882;2023-02-18T07:22:58;16.83;;;9.45;;
71856;SDS011;63344;46.980;28.882;2023-02-18T07:25:26;18.33;;;9.93;;
71856;SDS011;63344;46.980;28.882;2023-02-18T07:27:53;17.52;;;9.05;;
71856;SDS011;63344;46.980;28.882;2023-02-18T07:30:21;20.95;;;11.43;;
71856;SDS011;63344;46.980;28.882;2023-02-18T07:32:48;19.75;;;11.23;;
71856;SDS011;63344;46.980;28.882;2023-02-18T07:35:16;20.30;;;10.95;;
71856;SDS011;63344;46.980;28.882;2023-02-18T07:37:47;26.95;;;14.25;;
71856;SDS011;63344;46.980;28.882;2023-02-18T07:40:17;18.02;;;10.10;;
71856;SDS011;63344;46.980;28.882;2023-02-18T07:42:46;16.77;;;8.82;;
71856;SDS011;63344;46.980;28.882;2023-02-18T07:45:14;18.73;;;10.38;;
71856;SDS011;63344;46.980;28.882;2023-02-18T07:47:44;13.95;;;7.32;;
71856;SDS011;63344;46.980;28.882;2023-02-18T07:50:12;16.83;;;8.60;;
71856;SDS011;63344;46.980;28.882;2023-02-18T07:52:40;19.63;;;8.75;;
71856;SDS011;63344;46.980;28.882;2023-02-18T07:55:08;18.27;;;9.63;;
71856;SDS011;63344;46.980;28.882;2023-02-18T07:57:36;17.35;;;9.77;;
71856;SDS011;63344;46.980;28.882;2023-02-18T08:00:23;12.73;;;7.32;;
71856;SDS011;63344;46.980;28.882;2023-02-18T08:02:51;16.65;;;8.38;;
71856;SDS011;63344;46.980;28.882;2023-02-18T08:05:19;18.25;;;9.13;;
71856;SDS011;63344;46.980;28.882;2023-02-18T08:07:49;15.07;;;8.35;;
71856;SDS011;63344;46.980;28.882;2023-02-18T08:10:22;17.20;;;9.98;;
71856;SDS011;63344;46.980;28.882;2023-02-18T08:12:50;19.00;;;8.52;;
71856;SDS011;63344;46.980;28.882;2023-02-18T08:15:21;14.90;;;8.27;;
71856;SDS011;63344;46.980;28.882;2023-02-18T08:17:48;13.70;;;7.82;;
71856;SDS011;63344;46.980;28.882;2023-02-18T08:20:27;15.27;;;8.40;;
71856;SDS011;63344;46.980;28.882;2023-02-18T08:23:01;19.27;;;8.45;;
71856;SDS011;63344;46.980;28.882;2023-02-18T08:25:32;13.80;;;7.78;;
71856;SDS011;63344;46.980;28.882;2023-02-18T08:28:00;11.43;;;6.60;;
71856;SDS011;63344;46.980;28.882;2023-02-18T08:30:28;13.07;;;7.47;;
71856;SDS011;63344;46.980;28.882;2023-02-18T08:33:05;15.10;;;7.82;;
71856;SDS011;63344;46.980;28.882;2023-02-18T08:35:33;13.45;;;7.93;;
71856;SDS011;63344;46.980;28.882;2023-02-18T08:38:03;12.05;;;6.53;;
71856;SDS011;63344;46.980;28.882;2023-02-18T08:40:34;14.93;;;7.82;;
71856;SDS011;63344;46.980;28.882;2023-02-18T08:43:15;13.50;;;7.57;;
71856;SDS011;63344;46.980;28.882;2023-02-18T08:45:45;14.02;;;7.82;;
71856;SDS011;63344;46.980;28.882;2023-02-18T08:50:47;15.25;;;7.22;;
71856;SDS011;63344;46.980;28.882;2023-02-18T08:53:16;12.30;;;6.65;;
71856;SDS011;63344;46.980;28.882;2023-02-18T08:55:47;12.25;;;6.57;;
71856;SDS011;63344;46.980;28.882;2023-02-18T08:58:15;13.75;;;6.63;;
71856;SDS011;63344;46.980;28.882;2023-02-18T09:00:43;12.50;;;6.57;;
71856;SDS011;63344;46.980;28.882;2023-02-18T09:03:14;12.77;;;6.82;;
71856;SDS011;63344;46.980;28.882;2023-02-18T09:09:09;12.40;;;6.72;;
71856;SDS011;63344;46.980;28.882;2023-02-18T09:11:55;8.38;;;4.68;;
71856;SDS011;63344;46.980;28.882;2023-02-18T09:14:26;12.25;;;5.05;;
71856;SDS011;63344;46.980;28.882;2023-02-18T09:17:12;11.05;;;5.80;;
71856;SDS011;63344;46.980;28.882;2023-02-18T09:19:39;9.50;;;5.63;;
71856;SDS011;63344;46.980;28.882;2023-02-18T09:22:10;11.05;;;6.07;;
71856;SDS011;63344;46.980;28.882;2023-02-18T09:24:44;11.70;;;6.70;;
71856;SDS011;63344;46.980;28.882;2023-02-18T09:27:14;12.25;;;6.13;;
71856;SDS011;63344;46.980;28.882;2023-02-18T09:29:46;9.98;;;5.78;;
71856;SDS011;63344;46.980;28.882;2023-02-18T09:32:20;9.32;;;4.82;;
71856;SDS011;63344;46.980;28.882;2023-02-18T09:35:01;10.65;;;5.70;;
71856;SDS011;63344;46.980;28.882;2023-02-18T09:38:05;9.18;;;5.20;;
71856;SDS011;63344;46.980;28.882;2023-02-18T09:40:44;9.38;;;4.85;;
71856;SDS011;63344;46.980;28.882;2023-02-18T09:44:21;9.07;;;5.20;;
71856;SDS011;63344;46.980;28.882;2023-02-18T09:47:04;9.02;;;5.68;;
71856;SDS011;63344;46.980;28.882;2023-02-18T09:49:47;11.32;;;5.00;;
71856;SDS011;63344;46.980;28.882;2023-02-18T09:52:23;9.30;;;4.97;;
71856;SDS011;63344;46.980;28.882;2023-02-18T09:54:58;9.40;;;5.38;;
71856;SDS011;63344;46.980;28.882;2023-02-18T10:00:22;10.25;;;5.63;;
71856;SDS011;63344;46.980;28.882;2023-02-18T10:03:01;15.77;;;6.38;;
71856;SDS011;63344;46.980;28.882;2023-02-18T10:05:34;13.60;;;5.55;;
71856;SDS011;63344;46.980;28.882;2023-02-18T10:08:04;10.55;;;5.63;;
71856;SDS011;63344;46.980;28.882;2023-02-18T10:10:43;8.43;;;5.30;;
71856;SDS011;63344;46.980;28.882;2023-02-18T10:13:18;11.30;;;6.00;;
71856;SDS011;63344;46.980;28.882;2023-02-18T10:15:47;9.35;;;5.28;;
71856;SDS011;63344;46.980;28.882;2023-02-18T10:20:49;9.77;;;5.05;;
71856;SDS011;63344;46.980;28.882;2023-02-18T10:23:19;8.05;;;5.07;;
71856;SDS011;63344;46.980;28.882;2023-02-18T10:25:48;7.20;;;4.75;;
71856;SDS011;63344;46.980;28.882;2023-02-18T10:28:18;7.57;;;4.57;;
71856;SDS011;63344;46.980;28.882;2023-02-18T10:30:55;8.25;;;4.93;;
71856;SDS011;63344;46.980;28.882;2023-02-18T10:36:14;10.93;;;6.47;;
71856;SDS011;63344;46.980;28.882;2023-02-18T10:44:30;8.15;;;4.75;;
71856;SDS011;63344;46.980;28.882;2023-02-18T10:52:38;9.15;;;5.10;;
71856;SDS011;63344;46.980;28.882;2023-02-18T10:55:10;7.82;;;4.90;;
71856;SDS011;63344;46.980;28.882;2023-02-18T11:05:51;9.23;;;5.88;;
71856;SDS011;63344;46.980;28.882;2023-02-18T11:08:23;9.35;;;5.10;;
71856;SDS011;63344;46.980;28.882;2023-02-18T11:10:53;9.30;;;5.85;;
71856;SDS011;63344;46.980;28.882;2023-02-18T11:13:26;8.02;;;4.75;;
71856;SDS011;63344;46.980;28.882;2023-02-18T11:18:29;8.90;;;5.35;;
71856;SDS011;63344;46.980;28.882;2023-02-18T11:21:05;8.43;;;4.88;;
71856;SDS011;63344;46.980;28.882;2023-02-18T11:23:53;6.68;;;4.72;;
71856;SDS011;63344;46.980;28.882;2023-02-18T11:26:29;6.13;;;4.05;;
71856;SDS011;63344;46.980;28.882;2023-02-18T11:29:00;9.63;;;5.03;;
71856;SDS011;63344;46.980;28.882;2023-02-18T11:31:40;7.40;;;4.53;;
71856;SDS011;63344;46.980;28.882;2023-02-18T11:37:07;7.10;;;4.28;;
71856;SDS011;63344;46.980;28.882;2023-02-18T11:39:47;7.72;;;4.10;;
71856;SDS011;63344;46.980;28.882;2023-02-18T11:42:21;7.82;;;4.72;;
71856;SDS011;63344;46.980;28.882;2023-02-18T11:45:00;7.90;;;4.05;;
71856;SDS011;63344;46.980;28.882;2023-02-18T11:47:43;7.68;;;3.97;;
71856;SDS011;63344;46.980;28.882;2023-02-18T11:50:13;7.25;;;4.25;;
71856;SDS011;63344;46.980;28.882;2023-02-18T11:52:47;6.45;;;3.42;;
71856;SDS011;63344;46.980;28.882;2023-02-18T11:55:20;8.95;;;3.70;;
71856;SDS011;63344;46.980;28.882;2023-02-18T11:57:54;6.07;;;3.75;;
71856;SDS011;63344;46.980;28.882;2023-02-18T12:03:30;6.15;;;3.97;;
71856;SDS011;63344;46.980;28.882;2023-02-18T12:06:29;10.98;;;3.85;;
71856;SDS011;63344;46.980;28.882;2023-02-18T12:11:55;7.70;;;3.80;;
71856;SDS011;63344;46.980;28.882;2023-02-18T12:14:28;7.65;;;2.22;;
71856;SDS011;63344;46.980;28.882;2023-02-18T12:17:04;3.17;;;2.00;;
71856;SDS011;63344;46.980;28.882;2023-02-18T12:28:07;5.95;;;2.75;;
71856;SDS011;63344;46.980;28.882;2023-02-18T12:34:04;4.28;;;1.80;;
71856;SDS011;63344;46.980;28.882;2023-02-18T12:57:54;2.70;;;1.13;;
71856;SDS011;63344;46.980;28.882;2023-02-18T13:06:40;3.28;;;1.10;;
71856;SDS011;63344;46.980;28.882;2023-02-18T13:17:48;2.13;;;0.57;;
71856;SDS011;63344;46.980;28.882;2023-02-18T13:20:20;3.00;;;0.70;;
71856;SDS011;63344;46.980;28.882;2023-02-18T13:22:52;2.10;;;0.68;;
71856;SDS011;63344;46.980;28.882;2023-02-18T13:25:19;3.05;;;0.93;;
71856;SDS011;63344;46.980;28.882;2023-02-18T13:40:00;2.75;;;0.50;;
71856;SDS011;63344;46.980;28.882;2023-02-18T13:45:02;1.48;;;0.60;;
71856;SDS011;63344;46.980;28.882;2023-02-18T13:50:38;3.67;;;0.80;;
71856;SDS011;63344;46.980;28.882;2023-02-18T13:58:21;3.42;;;0.90;;
71856;SDS011;63344;46.980;28.882;2023-02-18T14:11:45;7.18;;;0.88;;
71856;SDS011;63344;46.980;28.882;2023-02-18T14:17:12;3.78;;;0.90;;
71856;SDS011;63344;46.980;28.882;2023-02-18T14:22:30;2.22;;;0.90;;
71856;SDS011;63344;46.980;28.882;2023-02-18T14:27:39;1.83;;;0.82;;
71856;SDS011;63344;46.980;28.882;2023-02-18T14:32:50;2.38;;;1.00;;
71856;SDS011;63344;46.980;28.882;2023-02-18T14:41:17;4.90;;;1.10;;
71856;SDS011;63344;46.980;28.882;2023-02-18T14:47:28;3.15;;;0.73;;
71856;SDS011;63344;46.980;28.882;2023-02-18T14:49:43;5.82;;;1.30;;
71856;SDS011;63344;46.980;28.882;2023-02-18T14:55:00;9.38;;;1.70;;
71856;SDS011;63344;46.980;28.882;2023-02-18T14:57:49;4.93;;;1.30;;
71856;SDS011;63344;46.980;28.882;2023-02-18T15:00:20;2.65;;;1.25;;
71856;SDS011;63344;46.980;28.882;2023-02-18T15:02:52;3.45;;;1.75;;
71856;SDS011;63344;46.980;28.882;2023-02-18T15:05:31;3.50;;;1.55;;
71856;SDS011;63344;46.980;28.882;2023-02-18T15:08:06;5.25;;;1.92;;
71856;SDS011;63344;46.980;28.882;2023-02-18T15:10:50;3.92;;;1.88;;
71856;SDS011;63344;46.980;28.882;2023-02-18T15:13:26;3.60;;;1.90;;
71856;SDS011;63344;46.980;28.882;2023-02-18T15:15:58;5.68;;;1.70;;
71856;SDS011;63344;46.980;28.882;2023-02-18T15:18:42;5.70;;;1.90;;
71856;SDS011;63344;46.980;28.882;2023-02-18T15:24:14;5.60;;;2.40;;
71856;SDS011;63344;46.980;28.882;2023-02-18T15:27:00;12.98;;;4.60;;
71856;SDS011;63344;46.980;28.882;2023-02-18T15:29:41;7.53;;;3.50;;
71856;SDS011;63344;46.980;28.882;2023-02-18T15:32:14;8.23;;;3.80;;
71856;SDS011;63344;46.980;28.882;2023-02-18T15:35:02;8.35;;;2.28;;
71856;SDS011;63344;46.980;28.882;2023-02-18T15:37:50;5.20;;;2.42;;
71856;SDS011;63344;46.980;28.882;2023-02-18T15:40:35;6.57;;;3.08;;
71856;SDS011;63344;46.980;28.882;2023-02-18T15:43:06;10.43;;;2.80;;
71856;SDS011;63344;46.980;28.882;2023-02-18T15:45:41;9.82;;;3.10;;
71856;SDS011;63344;46.980;28.882;2023-02-18T15:50:54;6.43;;;2.30;;
71856;SDS011;63344;46.980;28.882;2023-02-18T15:53:42;5.35;;;2.85;;
71856;SDS011;63344;46.980;28.882;2023-02-18T15:56:32;8.80;;;2.67;;
71856;SDS011;63344;46.980;28.882;2023-02-18T16:02:01;8.85;;;3.58;;
71856;SDS011;63344;46.980;28.882;2023-02-18T16:04:39;11.10;;;5.10;;
71856;SDS011;63344;46.980;28.882;2023-02-18T16:07:29;18.70;;;8.00;;
71856;SDS011;63344;46.980;28.882;2023-02-18T16:10:17;29.58;;;13.52;;
71856;SDS011;63344;46.980;28.882;2023-02-18T16:12:48;48.00;;;23.08;;
71856;SDS011;63344;46.980;28.882;2023-02-18T16:15:28;36.72;;;15.93;;
71856;SDS011;63344;46.980;28.882;2023-02-18T16:18:17;95.57;;;44.75;;
71856;SDS011;63344;46.980;28.882;2023-02-18T16:20:52;81.20;;;27.30;;
71856;SDS011;63344;46.980;28.882;2023-02-18T16:23:25;58.55;;;21.25;;
71856;SDS011;63344;46.980;28.882;2023-02-18T16:26:11;26.02;;;11.63;;
71856;SDS011;63344;46.980;28.882;2023-02-18T16:29:04;27.25;;;10.30;;
71856;SDS011;63344;46.980;28.882;2023-02-18T16:31:40;45.03;;;14.00;;
71856;SDS011;63344;46.980;28.882;2023-02-18T16:34:10;13.30;;;5.88;;
71856;SDS011;63344;46.980;28.882;2023-02-18T16:36:38;20.48;;;8.27;;
71856;SDS011;63344;46.980;28.882;2023-02-18T16:39:33;37.80;;;8.38;;
71856;SDS011;63344;46.980;28.882;2023-02-18T16:42:01;28.35;;;7.30;;
71856;SDS011;63344;46.980;28.882;2023-02-18T16:44:30;32.78;;;5.80;;
71856;SDS011;63344;46.980;28.882;2023-02-18T16:47:00;19.98;;;4.85;;
71856;SDS011;63344;46.980;28.882;2023-02-18T16:49:27;17.38;;;4.90;;
71856;SDS011;63344;46.980;28.882;2023-02-18T16:51:59;26.58;;;5.70;;
71856;SDS011;63344;46.980;28.882;2023-02-18T16:54:31;16.20;;;4.50;;
71856;SDS011;63344;46.980;28.882;2023-02-18T16:56:59;29.35;;;6.75;;
71856;SDS011;63344;46.980;28.882;2023-02-18T16:59:47;15.85;;;4.50;;
71856;SDS011;63344;46.980;28.882;2023-02-18T17:02:17;12.13;;;4.32;;
71856;SDS011;63344;46.980;28.882;2023-02-18T17:04:46;18.92;;;4.75;;
71856;SDS011;63344;46.980;28.882;2023-02-18T17:07:14;23.73;;;6.57;;
71856;SDS011;63344;46.980;28.882;2023-02-18T17:09:42;27.85;;;6.75;;
71856;SDS011;63344;46.980;28.882;2023-02-18T17:12:38;28.75;;;6.68;;
71856;SDS011;63344;46.980;28.882;2023-02-18T17:15:30;26.83;;;5.57;;
71856;SDS011;63344;46.980;28.882;2023-02-18T17:18:37;37.17;;;6.20;;
71856;SDS011;63344;46.980;28.882;2023-02-18T17:21:10;60.92;;;9.57;;
71856;SDS011;63344;46.980;28.882;2023-02-18T17:23:42;27.42;;;5.07;;
71856;SDS011;63344;46.980;28.882;2023-02-18T17:26:13;35.05;;;9.93;;
71856;SDS011;63344;46.980;28.882;2023-02-18T17:28:50;39.63;;;9.15;;
71856;SDS011;63344;46.980;28.882;2023-02-18T17:31:19;25.10;;;9.70;;
71856;SDS011;63344;46.980;28.882;2023-02-18T17:33:58;25.58;;;7.80;;
71856;SDS011;63344;46.980;28.882;2023-02-18T17:36:28;28.70;;;9.80;;
71856;SDS011;63344;46.980;28.882;2023-02-18T17:38:57;23.92;;;9.63;;
71856;SDS011;63344;46.980;28.882;2023-02-18T17:41:31;37.58;;;13.02;;
71856;SDS011;63344;46.980;28.882;2023-02-18T17:44:01;36.83;;;12.73;;
71856;SDS011;63344;46.980;28.882;2023-02-18T17:46:40;34.00;;;12.10;;
71856;SDS011;63344;46.980;28.882;2023-02-18T17:49:09;32.03;;;13.48;;
71856;SDS011;63344;46.980;28.882;2023-02-18T17:51:37;48.08;;;15.68;;
71856;SDS011;63344;46.980;28.882;2023-02-18T17:54:10;57.42;;;17.92;;
71856;SDS011;63344;46.980;28.882;2023-02-18T17:56:47;33.85;;;14.27;;
71856;SDS011;63344;46.980;28.882;2023-02-18T17:59:43;42.50;;;13.95;;
71856;SDS011;63344;46.980;28.882;2023-02-18T18:02:25;42.47;;;15.00;;
71856;SDS011;63344;46.980;28.882;2023-02-18T18:04:54;58.25;;;18.08;;
71856;SDS011;63344;46.980;28.882;2023-02-18T18:07:22;56.40;;;16.10;;
71856;SDS011;63344;46.980;28.882;2023-02-18T18:09:52;39.60;;;14.98;;
71856;SDS011;63344;46.980;28.882;2023-02-18T18:12:23;29.70;;;12.95;;
71856;SDS011;63344;46.980;28.882;2023-02-18T18:14:55;41.08;;;14.02;;
71856;SDS011;63344;46.980;28.882;2023-02-18T18:17:29;49.03;;;15.80;;
71856;SDS011;63344;46.980;28.882;2023-02-18T18:20:16;45.33;;;15.90;;